sensor_id;sensor_type;location;lat;lon;timestamp;pressure;altitude;pressure_sealevel;temperature;humidity
42945;BME280;28584;42.636;23.294;2023-04-28T00:02:10;159548.00;;;3.73;88.58
42945;BME280;28584;42.636;23.294;2023-04-28T00:04:35;159533.38;;;3.67;88.54
42945;BME280;28584;42.636;23.294;2023-04-28T00:07:00;159537.38;;;3.69;88.53
42945;BME280;28584;42.636;23.294;2023-04-28T00:09:26;159537.38;;;3.69;88.33
42945;BME280;28584;42.636;23.294;2023-04-28T00:11:51;159534.72;;;3.68;88.56
42945;BME280;28584;42.636;23.294;2023-04-28T00:14:16;159510.78;;;3.59;90.22
42945;BME280;28584;42.636;23.294;2023-04-28T00:16:42;159490.84;;;3.51;91.55
42945;BME280;28584;42.636;23.294;2023-04-28T00:19:07;159490.84;;;3.51;92.76
42945;BME280;28584;42.636;23.294;2023-04-28T00:21:32;159482.88;;;3.48;93.53
42945;BME280;28584;42.636;23.294;2023-04-28T00:23:58;159476.25;;;3.46;93.55
42945;BME280;28584;42.636;23.294;2023-04-28T00:26:23;159484.22;;;3.49;92.69
42945;BME280;28584;42.636;23.294;2023-04-28T00:28:49;159462.97;;;3.41;93.42
42945;BME280;28584;42.636;23.294;2023-04-28T00:31:14;159472.25;;;3.44;94.14
42945;BME280;28584;42.636;23.294;2023-04-28T00:33:41;159453.66;;;3.37;94.95
42945;BME280;28584;42.636;23.294;2023-04-28T00:36:07;159460.28;;;3.40;94.50
42945;BME280;28584;42.636;23.294;2023-04-28T00:38:33;159445.69;;;3.34;95.51
42945;BME280;28584;42.636;23.294;2023-04-28T00:40:59;159421.81;;;3.25;97.01
42945;BME280;28584;42.636;23.294;2023-04-28T00:43:24;159419.16;;;3.24;97.34
42945;BME280;28584;42.636;23.294;2023-04-28T00:45:50;159453.66;;;3.37;95.71
42945;BME280;28584;42.636;23.294;2023-04-28T00:48:16;159424.44;;;3.26;96.72
42945;BME280;28584;42.636;23.294;2023-04-28T00:50:43;159435.06;;;3.30;96.26
42945;BME280;28584;42.636;23.294;2023-04-28T00:53:10;159437.75;;;3.31;95.58
42945;BME280;28584;42.636;23.294;2023-04-28T00:55:36;159437.75;;;3.31;95.52
42945;BME280;28584;42.636;23.294;2023-04-28T00:58:01;159413.84;;;3.22;96.88
42945;BME280;28584;42.636;23.294;2023-04-28T01:00:27;159435.06;;;3.30;94.55
42945;BME280;28584;42.636;23.294;2023-04-28T01:02:52;159423.09;;;3.26;94.49
42945;BME280;28584;42.636;23.294;2023-04-28T01:05:18;159397.88;;;3.16;95.33
42945;BME280;28584;42.636;23.294;2023-04-28T01:07:44;159399.22;;;3.17;94.23
42945;BME280;28584;42.636;23.294;2023-04-28T01:10:09;159427.09;;;3.27;91.43
42945;BME280;28584;42.636;23.294;2023-04-28T01:12:35;159408.50;;;3.20;91.10
42945;BME280;28584;42.636;23.294;2023-04-28T01:15:01;159400.53;;;3.17;91.65
42945;BME280;28584;42.636;23.294;2023-04-28T01:17:26;159403.22;;;3.18;91.21
42945;BME280;28584;42.636;23.294;2023-04-28T01:19:52;159379.28;;;3.09;92.60
42945;BME280;28584;42.636;23.294;2023-04-28T01:22:17;159367.34;;;3.05;92.82
42945;BME280;28584;42.636;23.294;2023-04-28T01:24:43;159370.03;;;3.06;92.00
42945;BME280;28584;42.636;23.294;2023-04-28T01:27:08;159374.00;;;3.07;92.57
42945;BME280;28584;42.636;23.294;2023-04-28T01:29:33;159372.66;;;3.07;92.59
42945;BME280;28584;42.636;23.294;2023-04-28T01:31:59;159376.66;;;3.08;91.29
42945;BME280;28584;42.636;23.294;2023-04-28T01:34:24;159395.25;;;3.15;90.30
42945;BME280;28584;42.636;23.294;2023-04-28T01:36:50;159400.53;;;3.17;90.01
42945;BME280;28584;42.636;23.294;2023-04-28T01:39:16;159396.59;;;3.16;88.62
42945;BME280;28584;42.636;23.294;2023-04-28T01:41:41;159387.28;;;3.12;89.65
42945;BME280;28584;42.636;23.294;2023-04-28T01:44:07;159381.94;;;3.10;90.13
42945;BME280;28584;42.636;23.294;2023-04-28T01:46:33;159336.84;;;2.93;92.85
42945;BME280;28584;42.636;23.294;2023-04-28T01:48:59;159351.44;;;2.99;94.73
42945;BME280;28584;42.636;23.294;2023-04-28T01:51:24;159352.72;;;2.99;95.60
42945;BME280;28584;42.636;23.294;2023-04-28T01:53:51;159344.75;;;2.96;96.71
42945;BME280;28584;42.636;23.294;2023-04-28T01:56:16;159344.75;;;2.96;99.30
42945;BME280;28584;42.636;23.294;2023-04-28T01:58:41;159368.69;;;3.05;98.91
42945;BME280;28584;42.636;23.294;2023-04-28T02:01:07;159334.16;;;2.92;100.00
42945;BME280;28584;42.636;23.294;2023-04-28T02:03:32;159324.88;;;2.88;100.00
42945;BME280;28584;42.636;23.294;2023-04-28T02:05:58;159322.19;;;2.87;100.00
42945;BME280;28584;42.636;23.294;2023-04-28T02:08:23;159318.25;;;2.86;100.00
42945;BME280;28584;42.636;23.294;2023-04-28T02:10:48;159304.94;;;2.81;100.00
42945;BME280;28584;42.636;23.294;2023-04-28T02:13:14;159327.53;;;2.89;100.00
42945;BME280;28584;42.636;23.294;2023-04-28T02:15:41;159311.56;;;2.83;100.00
42945;BME280;28584;42.636;23.294;2023-04-28T02:18:07;159322.19;;;2.87;100.00
42945;BME280;28584;42.636;23.294;2023-04-28T02:20:32;159296.97;;;2.78;100.00
42945;BME280;28584;42.636;23.294;2023-04-28T02:22:57;159293.00;;;2.76;100.00
42945;BME280;28584;42.636;23.294;2023-04-28T02:25:23;159278.41;;;2.71;100.00
42945;BME280;28584;42.636;23.294;2023-04-28T02:27:48;159326.19;;;2.89;100.00
42945;BME280;28584;42.636;23.294;2023-04-28T02:30:14;159304.94;;;2.81;100.00
42945;BME280;28584;42.636;23.294;2023-04-28T02:32:39;159275.75;;;2.70;100.00
42945;BME280;28584;42.636;23.294;2023-04-28T02:35:05;159259.81;;;2.64;100.00
42945;BME280;28584;42.636;23.294;2023-04-28T02:37:30;159273.13;;;2.69;100.00
42945;BME280;28584;42.636;23.294;2023-04-28T02:39:56;159246.56;;;2.59;100.00
42945;BME280;28584;42.636;23.294;2023-04-28T02:42:21;159275.75;;;2.70;100.00
42945;BME280;28584;42.636;23.294;2023-04-28T02:44:46;159290.34;;;2.75;100.00
42945;BME280;28584;42.636;23.294;2023-04-28T02:47:12;159279.75;;;2.71;100.00
42945;BME280;28584;42.636;23.294;2023-04-28T02:49:37;159293.00;;;2.76;100.00
42945;BME280;28584;42.636;23.294;2023-04-28T02:52:02;159261.16;;;2.64;100.00
42945;BME280;28584;42.636;23.294;2023-04-28T02:54:28;159274.41;;;2.69;100.00
42945;BME280;28584;42.636;23.294;2023-04-28T02:56:54;159246.56;;;2.59;100.00
42945;BME280;28584;42.636;23.294;2023-04-28T02:59:20;159261.16;;;2.64;100.00
42945;BME280;28584;42.636;23.294;2023-04-28T03:01:45;159279.75;;;2.71;100.00
42945;BME280;28584;42.636;23.294;2023-04-28T03:04:11;159270.41;;;2.68;100.00
42945;BME280;28584;42.636;23.294;2023-04-28T03:06:36;159279.75;;;2.71;100.00
42945;BME280;28584;42.636;23.294;2023-04-28T03:09:02;159289.00;;;2.75;98.68
42945;BME280;28584;42.636;23.294;2023-04-28T03:11:28;159302.31;;;2.80;97.47
42945;BME280;28584;42.636;23.294;2023-04-28T03:13:53;159286.38;;;2.74;97.22
42945;BME280;28584;42.636;23.294;2023-04-28T03:16:18;159291.69;;;2.76;96.79
42945;BME280;28584;42.636;23.294;2023-04-28T03:18:44;159310.28;;;2.83;95.15
42945;BME280;28584;42.636;23.294;2023-04-28T03:21:09;159300.97;;;2.79;95.53
42945;BME280;28584;42.636;23.294;2023-04-28T03:23:34;159307.59;;;2.82;94.72
42945;BME280;28584;42.636;23.294;2023-04-28T03:26:00;159299.66;;;2.79;94.67
42945;BME280;28584;42.636;23.294;2023-04-28T03:28:26;159318.25;;;2.86;92.60
42945;BME280;28584;42.636;23.294;2023-04-28T03:30:51;159330.16;;;2.90;91.31
42945;BME280;28584;42.636;23.294;2023-04-28T03:33:16;159348.75;;;2.97;90.56
42945;BME280;28584;42.636;23.294;2023-04-28T03:35:42;159344.75;;;2.96;90.64
42945;BME280;28584;42.636;23.294;2023-04-28T03:38:07;159378.00;;;3.09;87.73
42945;BME280;28584;42.636;23.294;2023-04-28T03:40:32;159396.59;;;3.16;88.44
42945;BME280;28584;42.636;23.294;2023-04-28T03:42:58;159413.84;;;3.22;86.43
42945;BME280;28584;42.636;23.294;2023-04-28T03:45:23;159443.03;;;3.33;84.58
42945;BME280;28584;42.636;23.294;2023-04-28T03:47:49;159478.94;;;3.47;81.46
42945;BME280;28584;42.636;23.294;2023-04-28T03:50:14;159513.44;;;3.60;78.65
42945;BME280;28584;42.636;23.294;2023-04-28T03:52:39;159554.63;;;3.75;76.57
42945;BME280;28584;42.636;23.294;2023-04-28T03:55:05;159578.56;;;3.84;73.63
42945;BME280;28584;42.636;23.294;2023-04-28T03:57:31;159605.13;;;3.94;73.86
42945;BME280;28584;42.636;23.294;2023-04-28T03:59:56;159626.38;;;4.02;71.97
42945;BME280;28584;42.636;23.294;2023-04-28T04:02:21;159666.22;;;4.17;70.57
42945;BME280;28584;42.636;23.294;2023-04-28T04:04:47;159718.13;;;4.37;68.45
42945;BME280;28584;42.636;23.294;2023-04-28T04:07:12;159711.44;;;4.34;67.12
42945;BME280;28584;42.636;23.294;2023-04-28T04:09:38;159759.34;;;4.52;65.95
42945;BME280;28584;42.636;23.294;2023-04-28T04:12:03;159791.22;;;4.64;65.14
42945;BME280;28584;42.636;23.294;2023-04-28T04:14:29;159823.09;;;4.76;64.74
42945;BME280;28584;42.636;23.294;2023-04-28T04:16:54;159889.63;;;5.01;64.33
42945;BME280;28584;42.636;23.294;2023-04-28T04:19:21;159920.25;;;5.13;62.72
42945;BME280;28584;42.636;23.294;2023-04-28T04:21:48;159926.88;;;5.15;62.29
42945;BME280;28584;42.636;23.294;2023-04-28T04:24:13;159974.75;;;5.33;61.44
42945;BME280;28584;42.636;23.294;2023-04-28T04:26:38;159997.38;;;5.42;61.12
42945;BME280;28584;42.636;23.294;2023-04-28T04:29:04;160004.03;;;5.44;60.67
42945;BME280;28584;42.636;23.294;2023-04-28T04:31:30;160018.66;;;5.50;61.35
42945;BME280;28584;42.636;23.294;2023-04-28T04:33:55;160059.91;;;5.65;61.01
42945;BME280;28584;42.636;23.294;2023-04-28T04:36:21;160071.88;;;5.70;60.61
42945;BME280;28584;42.636;23.294;2023-04-28T04:38:46;160107.84;;;5.84;60.68
42945;BME280;28584;42.636;23.294;2023-04-28T04:41:12;160145.13;;;5.98;60.12
42945;BME280;28584;42.636;23.294;2023-04-28T04:43:37;160150.47;;;6.00;59.96
42945;BME280;28584;42.636;23.294;2023-04-28T04:46:03;160169.09;;;6.07;59.57
42945;BME280;28584;42.636;23.294;2023-04-28T04:48:28;160203.72;;;6.20;59.75
42945;BME280;28584;42.636;23.294;2023-04-28T04:50:54;160221.00;;;6.26;59.37
42945;BME280;28584;42.636;23.294;2023-04-28T04:53:19;160264.94;;;6.43;59.15
42945;BME280;28584;42.636;23.294;2023-04-28T04:55:45;160270.28;;;6.45;58.84
42945;BME280;28584;42.636;23.294;2023-04-28T04:58:10;160290.28;;;6.52;58.81
42945;BME280;28584;42.636;23.294;2023-04-28T05:00:35;160291.56;;;6.53;58.81
42945;BME280;28584;42.636;23.294;2023-04-28T05:03:02;160215.72;;;6.24;59.69
42945;BME280;28584;42.636;23.294;2023-04-28T05:05:28;160262.28;;;6.42;58.92
42945;BME280;28584;42.636;23.294;2023-04-28T05:07:53;160303.56;;;6.57;59.04
42945;BME280;28584;42.636;23.294;2023-04-28T05:10:19;160374.16;;;6.84;58.09
42945;BME280;28584;42.636;23.294;2023-04-28T05:12:44;160464.75;;;7.18;57.49
42945;BME280;28584;42.636;23.294;2023-04-28T05:15:10;160374.16;;;6.84;57.55
42945;BME280;28584;42.636;23.294;2023-04-28T05:17:35;160448.75;;;7.12;57.71
42945;BME280;28584;42.636;23.294;2023-04-28T05:20:01;160558.03;;;7.53;56.92
42945;BME280;28584;42.636;23.294;2023-04-28T05:22:26;160500.75;;;7.31;55.82
42945;BME280;28584;42.636;23.294;2023-04-28T05:24:52;160470.09;;;7.20;56.51
42945;BME280;28584;42.636;23.294;2023-04-28T05:27:18;160507.41;;;7.34;56.75
42945;BME280;28584;42.636;23.294;2023-04-28T05:29:43;160647.31;;;7.86;56.31
42945;BME280;28584;42.636;23.294;2023-04-28T05:32:09;160814.06;;;8.49;54.18
42945;BME280;28584;42.636;23.294;2023-04-28T05:34:34;160708.66;;;8.09;53.97
42945;BME280;28584;42.636;23.294;2023-04-28T05:36:59;160744.69;;;8.23;53.04
42945;BME280;28584;42.636;23.294;2023-04-28T05:39:25;160707.31;;;8.09;53.47
42945;BME280;28584;42.636;23.294;2023-04-28T05:41:51;160766.06;;;8.31;52.75
42945;BME280;28584;42.636;23.294;2023-04-28T05:44:16;160680.69;;;7.99;53.18
42945;BME280;28584;42.636;23.294;2023-04-28T05:46:41;160611.34;;;7.73;53.79
42945;BME280;28584;42.636;23.294;2023-04-28T05:49:07;160582.03;;;7.62;54.12
42945;BME280;28584;42.636;23.294;2023-04-28T05:51:33;160667.31;;;7.94;54.29
42945;BME280;28584;42.636;23.294;2023-04-28T05:53:58;160580.69;;;7.61;53.95
42945;BME280;28584;42.636;23.294;2023-04-28T05:56:23;160554.03;;;7.51;53.83
42945;BME280;28584;42.636;23.294;2023-04-28T05:58:49;160623.34;;;7.77;53.92
42945;BME280;28584;42.636;23.294;2023-04-28T06:01:15;160610.00;;;7.72;54.55
42945;BME280;28584;42.636;23.294;2023-04-28T06:03:41;160591.34;;;7.65;53.37
42945;BME280;28584;42.636;23.294;2023-04-28T06:06:08;160602.03;;;7.69;53.21
42945;BME280;28584;42.636;23.294;2023-04-28T06:08:33;160611.34;;;7.73;52.94
42945;BME280;28584;42.636;23.294;2023-04-28T06:10:59;160668.69;;;7.94;52.88
42945;BME280;28584;42.636;23.294;2023-04-28T06:13:26;160619.34;;;7.76;52.63
42945;BME280;28584;42.636;23.294;2023-04-28T06:15:51;160646.03;;;7.86;52.23
42945;BME280;28584;42.636;23.294;2023-04-28T06:18:17;160678.00;;;7.98;52.69
42945;BME280;28584;42.636;23.294;2023-04-28T06:20:42;160651.31;;;7.88;52.26
42945;BME280;28584;42.636;23.294;2023-04-28T06:23:08;160756.72;;;8.27;51.56
42945;BME280;28584;42.636;23.294;2023-04-28T06:25:34;160804.72;;;8.45;50.64
42945;BME280;28584;42.636;23.294;2023-04-28T06:28:00;160895.44;;;8.80;50.14
42945;BME280;28584;42.636;23.294;2023-04-28T06:30:26;160806.06;;;8.46;50.86
42945;BME280;28584;42.636;23.294;2023-04-28T06:32:51;160910.09;;;8.85;50.23
42945;BME280;28584;42.636;23.294;2023-04-28T06:35:17;160990.16;;;9.15;49.51
42945;BME280;28584;42.636;23.294;2023-04-28T06:37:42;160904.78;;;8.83;49.73
42945;BME280;28584;42.636;23.294;2023-04-28T06:40:09;160724.69;;;8.15;50.31
42945;BME280;28584;42.636;23.294;2023-04-28T06:42:34;160600.69;;;7.69;50.98
42945;BME280;28584;42.636;23.294;2023-04-28T06:45:00;160696.66;;;8.05;50.94
42945;BME280;28584;42.636;23.294;2023-04-28T06:47:25;160766.06;;;8.31;50.80
42945;BME280;28584;42.636;23.294;2023-04-28T06:49:50;160938.13;;;8.96;50.29
42945;BME280;28584;42.636;23.294;2023-04-28T06:52:16;160952.81;;;9.01;48.76
42945;BME280;28584;42.636;23.294;2023-04-28T06:54:42;161064.91;;;9.43;50.10
42945;BME280;28584;42.636;23.294;2023-04-28T06:57:07;161149.03;;;9.75;48.41
42945;BME280;28584;42.636;23.294;2023-04-28T06:59:33;161235.88;;;10.07;47.67
42945;BME280;28584;42.636;23.294;2023-04-28T07:58:59;161485.66;;;11.01;44.40
42945;BME280;28584;42.636;23.294;2023-04-28T08:01:24;161449.59;;;10.87;45.33
42945;BME280;28584;42.636;23.294;2023-04-28T08:03:49;161452.25;;;10.88;45.35
42945;BME280;28584;42.636;23.294;2023-04-28T08:06:15;161667.53;;;11.69;44.36
42945;BME280;28584;42.636;23.294;2023-04-28T08:08:41;161658.16;;;11.66;42.78
42945;BME280;28584;42.636;23.294;2023-04-28T08:11:06;161521.78;;;11.14;44.14
42945;BME280;28584;42.636;23.294;2023-04-28T08:13:32;161682.25;;;11.75;43.75
42945;BME280;28584;42.636;23.294;2023-04-28T08:15:58;161604.66;;;11.46;43.58
42945;BME280;28584;42.636;23.294;2023-04-28T08:18:27;161901.63;;;12.57;43.46
42945;BME280;28584;42.636;23.294;2023-04-28T08:20:53;162063.59;;;13.17;41.89
42945;BME280;28584;42.636;23.294;2023-04-28T08:23:19;161985.88;;;12.88;40.28
42945;BME280;28584;42.636;23.294;2023-04-28T08:25:45;161976.53;;;12.85;40.50
42945;BME280;28584;42.636;23.294;2023-04-28T08:28:11;162078.31;;;13.23;40.86
42945;BME280;28584;42.636;23.294;2023-04-28T08:30:36;161446.91;;;10.86;43.24
42945;BME280;28584;42.636;23.294;2023-04-28T08:33:03;161508.38;;;11.09;43.45
42945;BME280;28584;42.636;23.294;2023-04-28T08:35:29;161420.22;;;10.76;44.86
42945;BME280;28584;42.636;23.294;2023-04-28T08:37:54;161217.13;;;10.00;45.08
42945;BME280;28584;42.636;23.294;2023-04-28T08:40:20;161462.94;;;10.92;44.73
42945;BME280;28584;42.636;23.294;2023-04-28T08:42:46;161279.94;;;10.24;45.19
42945;BME280;28584;42.636;23.294;2023-04-28T08:45:15;161361.41;;;10.54;44.75
42945;BME280;28584;42.636;23.294;2023-04-28T08:47:40;161532.47;;;11.18;45.41
42945;BME280;28584;42.636;23.294;2023-04-28T08:50:11;161520.44;;;11.14;44.32
42945;BME280;28584;42.636;23.294;2023-04-28T08:52:37;161493.69;;;11.04;44.86
42945;BME280;28584;42.636;23.294;2023-04-28T08:55:08;161861.44;;;12.42;42.81
42945;BME280;28584;42.636;23.294;2023-04-28T08:57:42;161783.88;;;12.13;42.11
42945;BME280;28584;42.636;23.294;2023-04-28T09:00:08;161692.91;;;11.79;42.38
42945;BME280;28584;42.636;23.294;2023-04-28T09:02:34;161460.28;;;10.91;42.99
42945;BME280;28584;42.636;23.294;2023-04-28T09:05:02;161487.03;;;11.01;43.80
42945;BME280;28584;42.636;23.294;2023-04-28T09:07:27;161717.03;;;11.88;43.03
42945;BME280;28584;42.636;23.294;2023-04-28T09:12:44;161543.16;;;11.23;44.18
42945;BME280;28584;42.636;23.294;2023-04-28T09:15:09;161572.53;;;11.34;44.25
42945;BME280;28584;42.636;23.294;2023-04-28T09:17:50;161684.91;;;11.76;42.73
42945;BME280;28584;42.636;23.294;2023-04-28T09:20:22;161698.28;;;11.81;42.74
42945;BME280;28584;42.636;23.294;2023-04-28T09:22:49;161762.50;;;12.05;43.12
42945;BME280;28584;42.636;23.294;2023-04-28T09:25:15;162161.31;;;13.54;41.92
42945;BME280;28584;42.636;23.294;2023-04-28T09:27:41;161722.34;;;11.90;42.28
42945;BME280;28584;42.636;23.294;2023-04-28T09:30:07;161876.16;;;12.47;43.11
42945;BME280;28584;42.636;23.294;2023-04-28T09:32:34;162134.53;;;13.44;41.23
42945;BME280;28584;42.636;23.294;2023-04-28T09:35:01;162209.53;;;13.72;41.06
42945;BME280;28584;42.636;23.294;2023-04-28T09:37:28;162016.72;;;13.00;41.11
42945;BME280;28584;42.636;23.294;2023-04-28T09:40:01;161992.56;;;12.91;42.32
42945;BME280;28584;42.636;23.294;2023-04-28T09:42:43;161846.72;;;12.36;42.07
42945;BME280;28584;42.636;23.294;2023-04-28T09:52:56;161774.50;;;12.09;42.79
42945;BME280;28584;42.636;23.294;2023-04-28T09:55:23;161929.69;;;12.67;41.69
42945;BME280;28584;42.636;23.294;2023-04-28T09:57:53;162024.75;;;13.03;40.91
42945;BME280;28584;42.636;23.294;2023-04-28T10:00:19;161888.19;;;12.52;40.95
42945;BME280;28584;42.636;23.294;2023-04-28T10:02:45;161885.53;;;12.51;41.32
42945;BME280;28584;42.636;23.294;2023-04-28T10:05:11;161873.50;;;12.46;41.34
42945;BME280;28584;42.636;23.294;2023-04-28T10:07:37;161832.03;;;12.31;41.18
42945;BME280;28584;42.636;23.294;2023-04-28T10:10:03;161841.41;;;12.34;41.62
42945;BME280;28584;42.636;23.294;2023-04-28T10:12:29;161580.56;;;11.37;42.35
42945;BME280;28584;42.636;23.294;2023-04-28T10:14:55;161703.63;;;11.83;43.05
42945;BME280;28584;42.636;23.294;2023-04-28T10:17:22;161517.75;;;11.13;43.33
42945;BME280;28584;42.636;23.294;2023-04-28T10:19:51;161537.78;;;11.20;43.51
42945;BME280;28584;42.636;23.294;2023-04-28T10:27:42;161640.72;;;11.59;42.40
42945;BME280;28584;42.636;23.294;2023-04-28T10:30:13;161757.13;;;12.03;42.45
42945;BME280;28584;42.636;23.294;2023-04-28T10:32:39;161791.91;;;12.16;41.18
42945;BME280;28584;42.636;23.294;2023-04-28T10:43:04;162024.75;;;13.03;40.77
42945;BME280;28584;42.636;23.294;2023-04-28T10:49:02;162071.59;;;13.20;38.79
42945;BME280;28584;42.636;23.294;2023-04-28T10:56:07;161810.63;;;12.23;39.09
42945;BME280;28584;42.636;23.294;2023-04-28T10:58:32;161781.22;;;12.12;39.26
42945;BME280;28584;42.636;23.294;2023-04-28T11:08:58;162032.81;;;13.06;40.02
42945;BME280;28584;42.636;23.294;2023-04-28T11:11:26;161909.59;;;12.60;40.00
42945;BME280;28584;42.636;23.294;2023-04-28T11:13:53;162180.06;;;13.61;39.72
42945;BME280;28584;42.636;23.294;2023-04-28T11:16:24;161803.97;;;12.20;39.12
42945;BME280;28584;42.636;23.294;2023-04-28T11:18:51;162062.25;;;13.17;40.24
42945;BME280;28584;42.636;23.294;2023-04-28T11:21:17;161904.28;;;12.58;40.02
42945;BME280;28584;42.636;23.294;2023-04-28T11:23:44;161941.72;;;12.72;40.59
42945;BME280;28584;42.636;23.294;2023-04-28T11:26:09;161794.56;;;12.17;38.28
42945;BME280;28584;42.636;23.294;2023-04-28T11:28:35;161944.41;;;12.73;37.34
42945;BME280;28584;42.636;23.294;2023-04-28T11:31:12;161799.94;;;12.19;37.55
42945;BME280;28584;42.636;23.294;2023-04-28T11:33:38;161730.38;;;11.93;38.99
42945;BME280;28584;42.636;23.294;2023-04-28T11:36:05;161797.22;;;12.18;39.11
42945;BME280;28584;42.636;23.294;2023-04-28T11:38:42;161761.13;;;12.04;38.92
42945;BME280;28584;42.636;23.294;2023-04-28T11:41:08;161694.28;;;11.79;39.44
42945;BME280;28584;42.636;23.294;2023-04-28T11:43:33;161801.25;;;12.19;41.08
42945;BME280;28584;42.636;23.294;2023-04-28T11:46:00;161683.59;;;11.75;40.89
42945;BME280;28584;42.636;23.294;2023-04-28T11:48:25;161791.91;;;12.16;40.94
42945;BME280;28584;42.636;23.294;2023-04-28T11:50:51;161826.69;;;12.29;38.05
42945;BME280;28584;42.636;23.294;2023-04-28T11:53:16;161799.94;;;12.19;39.10
42945;BME280;28584;42.636;23.294;2023-04-28T11:55:42;161758.47;;;12.03;39.20
42945;BME280;28584;42.636;23.294;2023-04-28T11:58:20;161805.25;;;12.21;39.47
42945;BME280;28584;42.636;23.294;2023-04-28T12:01:11;161781.22;;;12.12;36.17
42945;BME280;28584;42.636;23.294;2023-04-28T12:03:44;161805.25;;;12.21;36.00
42945;BME280;28584;42.636;23.294;2023-04-28T12:06:10;161783.88;;;12.13;37.30
42945;BME280;28584;42.636;23.294;2023-04-28T12:08:36;161798.59;;;12.18;37.14
42945;BME280;28584;42.636;23.294;2023-04-28T12:13:35;161897.59;;;12.55;38.21
42945;BME280;28584;42.636;23.294;2023-04-28T12:16:01;161840.06;;;12.34;37.35
42945;BME280;28584;42.636;23.294;2023-04-28T12:18:28;161823.97;;;12.28;37.65
42945;BME280;28584;42.636;23.294;2023-04-28T12:20:53;161877.50;;;12.48;38.63
42945;BME280;28584;42.636;23.294;2023-04-28T12:23:33;161874.84;;;12.47;38.52
42945;BME280;28584;42.636;23.294;2023-04-28T12:25:59;161865.47;;;12.43;38.26
42945;BME280;28584;42.636;23.294;2023-04-28T12:28:39;161957.81;;;12.78;39.46
42945;BME280;28584;42.636;23.294;2023-04-28T12:31:07;161989.91;;;12.90;39.36
42945;BME280;28584;42.636;23.294;2023-04-28T12:33:34;162019.38;;;13.01;39.97
42945;BME280;28584;42.636;23.294;2023-04-28T12:36:03;162008.63;;;12.97;38.53
42945;BME280;28584;42.636;23.294;2023-04-28T12:38:29;162016.72;;;13.00;38.22
42945;BME280;28584;42.636;23.294;2023-04-28T12:40:55;161905.63;;;12.58;37.71
42945;BME280;28584;42.636;23.294;2023-04-28T12:43:21;161815.97;;;12.25;37.98
42945;BME280;28584;42.636;23.294;2023-04-28T12:45:51;161888.19;;;12.52;37.83
42945;BME280;28584;42.636;23.294;2023-04-28T12:48:17;161897.59;;;12.55;37.56
42945;BME280;28584;42.636;23.294;2023-04-28T12:50:43;161949.78;;;12.75;37.02
42945;BME280;28584;42.636;23.294;2023-04-28T12:53:08;161993.91;;;12.91;37.48
42945;BME280;28584;42.636;23.294;2023-04-28T12:55:34;161878.88;;;12.48;37.17
42945;BME280;28584;42.636;23.294;2023-04-28T12:57:59;161957.81;;;12.78;37.45
42945;BME280;28584;42.636;23.294;2023-04-28T13:00:25;161842.72;;;12.35;37.86
42945;BME280;28584;42.636;23.294;2023-04-28T13:02:50;161936.38;;;12.70;38.73
42945;BME280;28584;42.636;23.294;2023-04-28T13:05:17;162019.38;;;13.01;38.74
42945;BME280;28584;42.636;23.294;2023-04-28T13:07:43;162016.72;;;13.00;38.73
42945;BME280;28584;42.636;23.294;2023-04-28T13:10:09;162054.19;;;13.14;38.64
42945;BME280;28584;42.636;23.294;2023-04-28T13:12:35;162075.59;;;13.22;38.80
42945;BME280;28584;42.636;23.294;2023-04-28T13:15:01;162003.31;;;12.95;38.97
42945;BME280;28584;42.636;23.294;2023-04-28T13:17:27;161981.88;;;12.87;38.72
42945;BME280;28584;42.636;23.294;2023-04-28T13:19:52;162022.09;;;13.02;39.25
42945;BME280;28584;42.636;23.294;2023-04-28T13:22:18;162011.31;;;12.98;38.82
42945;BME280;28584;42.636;23.294;2023-04-28T13:24:44;162068.94;;;13.19;39.63
42945;BME280;28584;42.636;23.294;2023-04-28T13:27:09;162097.06;;;13.30;39.01
42945;BME280;28584;42.636;23.294;2023-04-28T13:29:35;162001.97;;;12.94;38.12
42945;BME280;28584;42.636;23.294;2023-04-28T13:32:01;161896.25;;;12.55;38.26
42945;BME280;28584;42.636;23.294;2023-04-28T13:34:26;161995.28;;;12.92;38.71
42945;BME280;28584;42.636;23.294;2023-04-28T13:36:52;162023.41;;;13.02;38.46
42945;BME280;28584;42.636;23.294;2023-04-28T13:39:19;162074.31;;;13.21;38.89
42945;BME280;28584;42.636;23.294;2023-04-28T13:41:46;162145.25;;;13.48;39.02
42945;BME280;28584;42.636;23.294;2023-04-28T13:44:13;162147.91;;;13.49;38.12
42945;BME280;28584;42.636;23.294;2023-04-28T13:46:38;162105.09;;;13.33;37.45
42945;BME280;28584;42.636;23.294;2023-04-28T13:49:04;162051.53;;;13.13;38.11
42945;BME280;28584;42.636;23.294;2023-04-28T13:51:29;162062.25;;;13.17;37.17
42945;BME280;28584;42.636;23.294;2023-04-28T13:53:57;162062.25;;;13.17;38.33
42945;BME280;28584;42.636;23.294;2023-04-28T13:56:22;162062.25;;;13.17;38.16
42945;BME280;28584;42.636;23.294;2023-04-28T13:58:48;162070.28;;;13.20;38.61
42945;BME280;28584;42.636;23.294;2023-04-28T14:01:13;162113.09;;;13.36;38.44
42945;BME280;28584;42.636;23.294;2023-04-28T14:03:39;162129.16;;;13.42;38.54
42945;BME280;28584;42.636;23.294;2023-04-28T14:06:05;162113.09;;;13.36;37.68
42945;BME280;28584;42.636;23.294;2023-04-28T14:08:32;162089.03;;;13.27;38.21
42945;BME280;28584;42.636;23.294;2023-04-28T14:10:58;162060.88;;;13.16;37.64
42945;BME280;28584;42.636;23.294;2023-04-28T14:13:23;162150.63;;;13.50;38.47
42945;BME280;28584;42.636;23.294;2023-04-28T14:15:52;162188.13;;;13.64;37.99
42945;BME280;28584;42.636;23.294;2023-04-28T14:18:20;162147.91;;;13.49;38.04
42945;BME280;28584;42.636;23.294;2023-04-28T14:20:45;162196.09;;;13.67;38.30